createdAt,value
2023-01-01T00:00:52.677Z,7.70
2023-01-01T00:01:52.656Z,7.80
2023-01-01T00:02:52.591Z,7.20
2023-01-01T00:03:53.715Z,6.90
2023-01-01T00:04:52.579Z,6.20
2023-01-01T00:05:52.568Z,6.80
2023-01-01T00:06:52.556Z,6.50
2023-01-01T00:07:52.552Z,5.90
2023-01-01T00:08:52.560Z,6.20
2023-01-01T00:09:52.536Z,6.40
2023-01-01T00:10:52.530Z,6.10
2023-01-01T00:11:52.481Z,5.80
2023-01-01T00:12:52.527Z,5.70
2023-01-01T00:13:52.576Z,6.00
2023-01-01T00:14:52.456Z,5.60
2023-01-01T00:15:52.443Z,5.60
2023-01-01T00:16:52.471Z,5.60
2023-01-01T00:17:52.432Z,5.60
2023-01-01T00:18:52.451Z,5.50
2023-01-01T00:19:52.408Z,5.90
2023-01-01T00:20:52.380Z,5.90
2023-01-01T00:21:52.376Z,6.20
2023-01-01T00:22:55.578Z,5.80
2023-01-01T00:23:53.356Z,5.90
2023-01-01T00:24:52.374Z,6.50
2023-01-01T00:25:52.347Z,6.20
2023-01-01T00:26:52.332Z,6.30
2023-01-01T00:27:52.335Z,5.60
2023-01-01T00:28:52.322Z,6.80
2023-01-01T00:29:52.480Z,6.10
2023-01-01T00:30:52.299Z,6.00
2023-01-01T00:31:53.302Z,6.30
2023-01-01T00:32:54.687Z,6.60
2023-01-01T00:33:53.236Z,6.40
2023-01-01T00:34:52.241Z,6.20
2023-01-01T00:35:52.224Z,6.50
2023-01-01T00:36:52.205Z,6.60
2023-01-01T00:37:52.181Z,6.90
2023-01-01T00:38:52.207Z,7.10
2023-01-01T00:39:52.178Z,6.90
2023-01-01T00:40:52.175Z,6.70
2023-01-01T00:41:52.170Z,7.20
2023-01-01T00:42:52.123Z,6.80
2023-01-01T00:43:52.156Z,6.70
2023-01-01T00:44:52.093Z,6.50
2023-01-01T00:45:52.141Z,6.40
2023-01-01T00:46:52.073Z,7.00
2023-01-01T00:47:52.052Z,6.20
2023-01-01T00:48:52.070Z,6.20
2023-01-01T00:49:52.051Z,6.40
2023-01-01T00:50:52.054Z,6.30
2023-01-01T00:51:52.038Z,6.50
2023-01-01T00:52:52.017Z,6.30
2023-01-01T00:53:51.998Z,6.50
2023-01-01T00:54:51.979Z,6.00
2023-01-01T00:55:51.990Z,6.00
2023-01-01T00:56:52.954Z,6.00
2023-01-01T00:57:51.962Z,6.00
2023-01-01T00:59:01.612Z,6.20
2023-01-01T00:59:52.917Z,6.00
2023-01-01T01:00:51.972Z,6.10
2023-01-01T01:01:51.981Z,6.10
2023-01-01T01:02:51.924Z,6.10
2023-01-01T01:03:51.881Z,6.00
2023-01-01T01:04:51.933Z,6.10
2023-01-01T01:05:51.982Z,6.10
2023-01-01T01:06:51.856Z,5.50
2023-01-01T01:07:51.880Z,5.50
2023-01-01T01:08:51.853Z,5.80
2023-01-01T01:09:51.811Z,5.50
2023-01-01T01:10:51.789Z,6.10
2023-01-01T01:11:51.795Z,6.10
2023-01-01T01:12:52.782Z,5.80
2023-01-01T01:13:51.750Z,6.80
2023-01-01T01:14:51.782Z,6.30
2023-01-01T01:15:56.291Z,6.20
2023-01-01T01:16:53.729Z,6.30
2023-01-01T01:17:51.700Z,5.60
2023-01-01T01:18:51.698Z,6.40
2023-01-01T01:19:51.740Z,6.40
2023-01-01T01:20:51.665Z,6.80
2023-01-01T01:21:51.724Z,6.10
2023-01-01T01:22:51.647Z,6.30
2023-01-01T01:23:51.658Z,6.60
2023-01-01T01:24:51.663Z,6.20
2023-01-01T01:25:51.626Z,6.80
2023-01-01T01:26:51.596Z,6.90
2023-01-01T01:27:51.607Z,6.60
2023-01-01T01:28:51.576Z,6.80
2023-01-01T01:29:51.642Z,6.90
2023-01-01T01:30:51.628Z,7.00
2023-01-01T01:31:51.541Z,6.80
2023-01-01T01:32:51.538Z,7.50
2023-01-01T01:33:51.495Z,7.10
2023-01-01T01:34:51.528Z,7.20
2023-01-01T01:35:51.503Z,7.40
2023-01-01T01:36:51.484Z,7.30
2023-01-01T01:37:51.492Z,7.80
2023-01-01T01:38:51.458Z,7.20
2023-01-01T01:39:54.015Z,7.60
2023-01-01T01:40:52.511Z,7.70
2023-01-01T01:41:51.433Z,7.90
2023-01-01T01:42:51.421Z,7.70
2023-01-01T01:43:51.447Z,7.80
2023-01-01T01:44:51.408Z,7.50
2023-01-01T01:45:51.462Z,7.40
2023-01-01T01:46:51.359Z,7.30
2023-01-01T01:47:51.345Z,7.40
2023-01-01T01:48:51.361Z,7.70
2023-01-01T01:49:51.317Z,7.20
2023-01-01T01:50:51.309Z,8.00
2023-01-01T01:51:51.304Z,7.70
2023-01-01T01:52:51.312Z,7.60
2023-01-01T01:53:51.294Z,7.60
2023-01-01T01:54:51.301Z,7.70
2023-01-01T01:55:51.269Z,8.10
2023-01-01T01:56:51.239Z,7.90
2023-01-01T01:57:51.232Z,8.10
2023-01-01T01:58:51.248Z,7.70
2023-01-01T01:59:51.229Z,7.80
2023-01-01T02:00:51.203Z,8.30
2023-01-01T02:01:51.275Z,8.30
2023-01-01T02:02:51.456Z,7.90
2023-01-01T02:03:51.158Z,8.70
2023-01-01T02:04:51.157Z,8.50
2023-01-01T02:05:51.126Z,8.20
2023-01-01T02:06:51.101Z,8.80
2023-01-01T02:07:51.105Z,8.60
2023-01-01T02:08:51.087Z,8.90
2023-01-01T02:09:51.088Z,8.80
2023-01-01T02:10:51.093Z,8.90
2023-01-01T02:11:51.210Z,8.60
2023-01-01T02:12:51.037Z,8.40
2023-01-01T02:13:51.035Z,8.50
2023-01-01T02:14:51.030Z,8.50
2023-01-01T02:15:51.161Z,9.30
2023-01-01T02:16:50.989Z,8.50
2023-01-01T02:17:50.965Z,8.90
2023-01-01T02:18:50.972Z,8.80
2023-01-01T02:19:51.082Z,9.10
2023-01-01T02:20:51.020Z,9.10
2023-01-01T02:21:50.928Z,9.20
2023-01-01T02:22:50.929Z,9.50
2023-01-01T02:23:50.945Z,8.60
2023-01-01T02:24:50.885Z,9.30
2023-01-01T02:25:50.927Z,9.30
2023-01-01T02:26:50.870Z,10.10
2023-01-01T02:27:50.858Z,9.40
2023-01-01T02:28:51.838Z,9.10
2023-01-01T02:29:50.828Z,9.60
2023-01-01T02:30:50.844Z,10.00
2023-01-01T02:31:50.838Z,9.70
2023-01-01T02:32:50.812Z,9.50
2023-01-01T02:33:50.786Z,9.70
2023-01-01T02:34:50.810Z,10.00
2023-01-01T02:35:50.758Z,9.80
2023-01-01T02:36:50.767Z,11.00
2023-01-01T02:37:50.729Z,10.20
2023-01-01T02:38:50.729Z,11.00
2023-01-01T02:39:51.711Z,11.40
2023-01-01T02:40:50.715Z,11.20
2023-01-01T02:41:50.742Z,11.10
2023-01-01T02:42:50.718Z,11.20
2023-01-01T02:43:50.661Z,11.60
2023-01-01T02:44:50.707Z,11.10
2023-01-01T02:45:50.691Z,11.60
2023-01-01T02:46:50.772Z,11.10
2023-01-01T02:47:50.611Z,11.60
2023-01-01T02:48:50.644Z,11.50
2023-01-01T02:49:50.594Z,12.10
2023-01-01T02:50:50.582Z,12.10
2023-01-01T02:51:50.555Z,12.50
2023-01-01T02:52:50.573Z,12.90
2023-01-01T02:53:50.555Z,12.60
2023-01-01T02:54:50.529Z,13.60
2023-01-01T02:55:50.522Z,14.10
2023-01-01T02:56:50.505Z,14.30
2023-01-01T02:57:50.531Z,13.70
2023-01-01T02:58:50.532Z,15.20
2023-01-01T02:59:50.478Z,14.60
2023-01-01T03:00:50.453Z,14.80
2023-01-01T03:01:50.554Z,15.60
2023-01-01T03:02:51.497Z,15.60
2023-01-01T03:03:51.434Z,15.90
2023-01-01T03:04:50.443Z,16.00
2023-01-01T03:05:50.396Z,16.40
2023-01-01T03:06:50.400Z,15.90
2023-01-01T03:07:50.399Z,16.30
2023-01-01T03:08:50.377Z,17.50
2023-01-01T03:09:51.373Z,16.80
2023-01-01T03:10:50.393Z,16.80
2023-01-01T03:11:50.350Z,16.80
2023-01-01T03:12:50.336Z,17.70
2023-01-01T03:13:50.320Z,17.10
2023-01-01T03:14:50.311Z,17.90
2023-01-01T03:15:50.319Z,17.40
2023-01-01T03:16:50.311Z,17.30
2023-01-01T03:17:50.261Z,17.90
2023-01-01T03:18:50.250Z,18.60
2023-01-01T03:19:50.241Z,16.80
2023-01-01T03:20:50.231Z,18.60
2023-01-01T03:21:50.237Z,18.80
2023-01-01T03:22:50.250Z,16.50
2023-01-01T03:23:50.352Z,18.20
2023-01-01T03:24:50.218Z,17.20
2023-01-01T03:25:50.216Z,18.50
2023-01-01T03:26:50.175Z,17.10
2023-01-01T03:27:50.152Z,17.70
2023-01-01T03:28:50.145Z,17.80
2023-01-01T03:29:50.168Z,17.80
2023-01-01T03:30:50.188Z,18.40
2023-01-01T03:31:50.113Z,17.50
2023-01-01T03:32:50.118Z,17.70
2023-01-01T03:33:50.085Z,17.70
2023-01-01T03:34:50.068Z,18.00
2023-01-01T03:35:50.054Z,18.90
2023-01-01T03:36:50.163Z,17.90
2023-01-01T03:37:50.063Z,17.10
2023-01-01T03:38:50.025Z,17.70
2023-01-01T03:39:49.999Z,18.30
2023-01-01T03:40:49.988Z,16.80
2023-01-01T03:41:49.979Z,17.70
2023-01-01T03:42:50.662Z,16.80
2023-01-01T03:43:49.959Z,16.90
2023-01-01T03:44:49.936Z,17.20
2023-01-01T03:45:49.931Z,18.10
2023-01-01T03:46:49.953Z,17.40
2023-01-01T03:47:49.919Z,17.40
2023-01-01T03:48:49.917Z,17.60
2023-01-01T03:49:49.914Z,16.30
2023-01-01T03:50:49.868Z,17.20
2023-01-01T03:51:49.871Z,17.20
2023-01-01T03:52:49.852Z,16.00
2023-01-01T03:53:49.830Z,17.90
2023-01-01T03:54:53.721Z,17.00
2023-01-01T03:55:51.841Z,16.80
2023-01-01T03:56:49.822Z,16.30
2023-01-01T03:57:49.812Z,17.40
2023-01-01T03:58:49.813Z,17.00
2023-01-01T03:59:49.760Z,17.70
2023-01-01T04:00:49.786Z,17.40
2023-01-01T04:01:49.862Z,17.10
2023-01-01T04:02:49.796Z,17.30
2023-01-01T04:03:49.753Z,17.30
2023-01-01T04:04:49.707Z,18.10
2023-01-01T04:05:49.717Z,17.40
2023-01-01T04:06:49.698Z,17.70
2023-01-01T04:08:35.421Z,17.60
2023-01-01T04:09:36.520Z,17.90
2023-01-01T04:10:36.485Z,17.80
2023-01-01T04:11:36.484Z,17.60
2023-01-01T04:12:36.482Z,17.10
2023-01-01T04:13:36.478Z,18.30
2023-01-01T04:14:36.565Z,17.10
2023-01-01T04:15:36.445Z,16.90
2023-01-01T04:16:36.488Z,17.80
2023-01-01T04:17:36.442Z,15.80
2023-01-01T04:18:36.414Z,17.30
2023-01-01T04:19:36.414Z,17.10
2023-01-01T04:20:36.412Z,16.00
2023-01-01T04:21:36.389Z,17.10
2023-01-01T04:22:36.425Z,16.90
2023-01-01T04:23:36.405Z,16.00
2023-01-01T04:24:36.390Z,16.20
2023-01-01T04:25:36.326Z,16.10
2023-01-01T04:26:36.317Z,15.80
2023-01-01T04:27:36.327Z,16.20
2023-01-01T04:28:36.330Z,16.40
2023-01-01T04:29:36.311Z,16.10
2023-01-01T04:31:21.998Z,16.00
2023-01-01T04:32:23.141Z,16.80
2023-01-01T04:33:23.089Z,17.70
2023-01-01T04:34:23.081Z,16.70
2023-01-01T04:35:23.075Z,16.70
2023-01-01T04:36:23.072Z,17.00
2023-01-01T04:37:23.045Z,16.70
2023-01-01T04:38:23.091Z,17.00
2023-01-01T04:39:23.043Z,16.40
2023-01-01T04:40:23.051Z,16.60
2023-01-01T04:41:23.071Z,16.00
2023-01-01T04:42:22.993Z,15.50
2023-01-01T04:43:23.011Z,16.80
2023-01-01T04:44:22.983Z,16.20
2023-01-01T04:45:23.049Z,14.70
2023-01-01T04:46:22.967Z,16.00
2023-01-01T04:47:22.938Z,16.40
2023-01-01T04:48:22.931Z,15.10
2023-01-01T04:49:22.936Z,16.30
2023-01-01T04:50:22.936Z,16.00
2023-01-01T04:51:22.878Z,15.70
2023-01-01T04:52:22.878Z,16.10
2023-01-01T04:53:22.885Z,15.70
2023-01-01T04:54:22.860Z,16.00
2023-01-01T04:55:22.831Z,15.90
2023-01-01T04:56:22.859Z,16.20
2023-01-01T04:57:22.812Z,16.40
2023-01-01T04:58:23.803Z,15.60
2023-01-01T04:59:22.796Z,16.10
2023-01-01T05:00:22.801Z,16.20
2023-01-01T05:02:41.417Z,16.10
2023-01-01T05:03:42.399Z,15.40
2023-01-01T05:04:42.381Z,15.80
2023-01-01T05:05:44.449Z,14.10
2023-01-01T05:06:43.356Z,15.00
2023-01-01T05:07:42.395Z,14.80
2023-01-01T05:08:42.335Z,15.40
2023-01-01T05:09:42.311Z,15.50
2023-01-01T05:10:42.325Z,15.20
2023-01-01T05:11:42.324Z,14.00
2023-01-01T05:12:42.289Z,15.10
2023-01-01T05:13:42.361Z,14.80
2023-01-01T05:14:42.264Z,14.50
2023-01-01T05:15:42.256Z,15.10
2023-01-01T05:16:42.425Z,14.30
2023-01-01T05:17:42.272Z,15.10
2023-01-01T05:18:42.223Z,14.70
2023-01-01T05:19:42.214Z,15.30
2023-01-01T05:20:42.192Z,14.60
2023-01-01T05:21:42.185Z,15.20
2023-01-01T05:22:42.168Z,15.00
2023-01-01T05:23:42.181Z,14.20
2023-01-01T05:24:42.167Z,14.40
2023-01-01T05:25:42.140Z,14.80
2023-01-01T05:26:42.126Z,15.10
2023-01-01T05:27:42.128Z,14.30
2023-01-01T05:28:42.134Z,15.20
2023-01-01T05:29:42.091Z,13.70
2023-01-01T05:30:42.085Z,14.30
2023-01-01T05:31:42.132Z,13.90
2023-01-01T05:32:42.062Z,14.80
2023-01-01T05:33:42.058Z,15.10
2023-01-01T05:34:42.046Z,14.70
2023-01-01T05:35:42.988Z,14.70
2023-01-01T05:36:42.023Z,13.90
2023-01-01T05:37:42.028Z,14.80
2023-01-01T05:38:41.998Z,14.60
2023-01-01T05:39:41.986Z,15.20
2023-01-01T05:40:41.994Z,14.70
2023-01-01T05:41:41.988Z,14.90
2023-01-01T05:42:41.960Z,14.00
2023-01-01T05:43:41.932Z,13.90
2023-01-01T05:44:41.923Z,13.90
2023-01-01T05:45:41.965Z,14.90
2023-01-01T05:46:41.915Z,14.00
2023-01-01T05:47:41.924Z,14.90
2023-01-01T05:48:41.978Z,14.50
2023-01-01T05:49:41.874Z,14.50
2023-01-01T05:50:41.868Z,14.50
2023-01-01T05:51:41.849Z,14.90
2023-01-01T05:52:41.848Z,13.50
2023-01-01T05:53:41.825Z,14.80
2023-01-01T05:54:41.822Z,14.90
2023-01-01T05:55:41.826Z,14.80
2023-01-01T05:56:41.797Z,14.80
2023-01-01T05:57:41.838Z,14.10
2023-01-01T05:58:41.773Z,13.90
2023-01-01T05:59:41.772Z,14.50
2023-01-01T06:00:41.746Z,14.70
2023-01-01T06:01:45.505Z,13.00
2023-01-01T06:02:42.810Z,13.60
2023-01-01T06:03:41.719Z,13.80
2023-01-01T06:04:41.778Z,13.60
2023-01-01T06:05:41.687Z,13.80
2023-01-01T06:06:41.699Z,14.00
2023-01-01T06:07:46.499Z,13.40
2023-01-01T06:08:43.670Z,13.90
2023-01-01T06:09:41.667Z,13.20
2023-01-01T06:10:41.712Z,13.40
2023-01-01T06:11:41.631Z,13.10
2023-01-01T06:12:41.618Z,13.00
2023-01-01T06:13:41.596Z,13.40
2023-01-01T06:14:41.591Z,13.30
2023-01-01T06:15:41.601Z,13.60
2023-01-01T06:16:41.617Z,13.10
2023-01-01T06:17:41.563Z,13.00
2023-01-01T06:18:42.478Z,13.30
2023-01-01T06:19:42.554Z,12.60
2023-01-01T06:20:41.526Z,12.40
2023-01-01T06:21:41.500Z,12.70
2023-01-01T06:22:41.508Z,13.10
2023-01-01T06:23:41.482Z,12.90
2023-01-01T06:24:41.535Z,12.60
2023-01-01T06:25:41.523Z,12.30
2023-01-01T06:26:41.513Z,12.50
2023-01-01T06:27:41.452Z,11.90
2023-01-01T06:28:41.459Z,11.60
2023-01-01T06:29:41.464Z,12.70
2023-01-01T06:30:41.430Z,12.60
2023-01-01T06:31:41.431Z,12.50
2023-01-01T06:32:41.440Z,12.40
2023-01-01T06:33:41.364Z,12.40
2023-01-01T06:34:41.364Z,12.40
2023-01-01T06:35:41.371Z,12.00
2023-01-01T06:36:41.375Z,12.20
2023-01-01T06:37:41.344Z,11.60
2023-01-01T06:38:41.315Z,11.80
2023-01-01T06:39:41.309Z,11.60
2023-01-01T06:40:41.288Z,11.60
2023-01-01T06:41:41.273Z,12.00
2023-01-01T06:42:41.332Z,11.40
2023-01-01T06:43:41.272Z,11.00
2023-01-01T06:44:41.242Z,11.50
2023-01-01T06:45:41.252Z,11.30
2023-01-01T06:46:41.269Z,11.30
2023-01-01T06:47:41.216Z,11.70
2023-01-01T06:48:41.193Z,11.60
2023-01-01T06:49:41.179Z,11.60
2023-01-01T06:50:41.217Z,11.60
2023-01-01T06:51:41.156Z,11.40
2023-01-01T06:52:41.156Z,11.60
2023-01-01T06:53:41.148Z,10.90
2023-01-01T06:54:41.123Z,11.40
2023-01-01T06:55:41.117Z,11.50
2023-01-01T06:56:41.138Z,11.20
2023-01-01T06:57:41.082Z,11.00
2023-01-01T06:58:41.084Z,11.00
2023-01-01T06:59:41.091Z,10.60
2023-01-01T07:00:41.060Z,11.20
2023-01-01T07:01:43.923Z,10.80
2023-01-01T07:02:41.164Z,11.00
2023-01-01T07:03:41.096Z,11.30
2023-01-01T07:04:41.017Z,10.40
2023-01-01T07:05:41.009Z,10.30
2023-01-01T07:06:41.026Z,9.80
2023-01-01T07:07:41.502Z,10.00
2023-01-01T07:08:40.982Z,10.30
2023-01-01T07:09:40.953Z,10.20
2023-01-01T07:10:40.948Z,9.80
2023-01-01T07:11:40.942Z,10.40
2023-01-01T07:12:40.925Z,10.20
2023-01-01T07:13:40.915Z,10.20
2023-01-01T07:14:40.896Z,9.90
2023-01-01T07:15:40.903Z,10.20
2023-01-01T07:16:40.923Z,9.70
2023-01-01T07:17:40.894Z,9.80
2023-01-01T07:18:40.857Z,9.40
2023-01-01T07:19:40.919Z,9.60
2023-01-01T07:20:40.841Z,9.50
2023-01-01T07:21:40.837Z,9.10
2023-01-01T07:22:40.842Z,9.60
2023-01-01T07:23:40.814Z,9.10
2023-01-01T07:24:40.798Z,8.70
2023-01-01T07:25:40.782Z,9.00
2023-01-01T07:26:40.773Z,8.80
2023-01-01T07:27:40.760Z,9.00
2023-01-01T07:28:40.815Z,8.90
2023-01-01T07:29:40.734Z,8.60
2023-01-01T07:30:40.747Z,8.20
2023-01-01T07:31:40.886Z,8.10
2023-01-01T07:32:40.721Z,7.90
2023-01-01T07:33:40.712Z,7.60
2023-01-01T07:34:41.660Z,7.50
2023-01-01T07:35:40.681Z,8.40
2023-01-01T07:36:40.660Z,7.90
2023-01-01T07:37:40.728Z,8.30
2023-01-01T07:38:40.634Z,7.80
2023-01-01T07:39:40.623Z,8.00
2023-01-01T07:40:40.611Z,7.70
2023-01-01T07:41:40.676Z,7.90
2023-01-01T07:42:40.569Z,7.70
2023-01-01T07:43:40.604Z,7.80
2023-01-01T07:44:40.575Z,8.00
2023-01-01T07:45:40.550Z,7.80
2023-01-01T07:46:40.599Z,7.60
2023-01-01T07:47:40.528Z,7.30
2023-01-01T07:48:40.558Z,7.40
2023-01-01T07:49:40.498Z,7.30
2023-01-01T07:50:41.531Z,7.50
2023-01-01T07:51:40.555Z,7.00
2023-01-01T07:52:40.459Z,6.30
2023-01-01T07:53:41.494Z,6.50
2023-01-01T07:54:40.463Z,6.80
2023-01-01T07:55:40.444Z,6.30
2023-01-01T07:56:40.443Z,6.40
2023-01-01T07:57:40.405Z,6.50
2023-01-01T07:58:40.416Z,6.70
2023-01-01T07:59:40.527Z,6.90
2023-01-01T08:00:40.422Z,6.20
2023-01-01T08:01:40.476Z,6.10
2023-01-01T08:02:40.438Z,6.40
2023-01-01T08:03:40.358Z,6.30
2023-01-01T08:04:40.328Z,6.20
2023-01-01T08:05:40.316Z,5.70
2023-01-01T08:06:40.336Z,5.50
2023-01-01T08:07:40.289Z,6.20
2023-01-01T08:08:40.290Z,6.00
2023-01-01T08:09:40.262Z,6.10
2023-01-01T08:10:40.261Z,5.70
2023-01-01T08:11:40.249Z,6.40
2023-01-01T08:12:40.235Z,5.70
2023-01-01T08:13:40.211Z,5.90
2023-01-01T08:14:40.201Z,6.10
2023-01-01T08:15:40.311Z,5.70
2023-01-01T08:16:40.180Z,6.10
2023-01-01T08:17:46.204Z,6.00
2023-01-01T08:18:42.148Z,5.90
2023-01-01T08:19:40.140Z,5.60
2023-01-01T08:20:40.136Z,5.80
2023-01-01T08:21:40.124Z,5.80
2023-01-01T08:22:41.119Z,5.90
2023-01-01T08:23:40.115Z,5.70
2023-01-01T08:24:40.129Z,5.30
2023-01-01T08:25:40.085Z,5.60
2023-01-01T08:26:40.099Z,5.50
2023-01-01T08:27:40.052Z,5.60
2023-01-01T08:28:40.047Z,5.60
2023-01-01T08:29:40.031Z,5.50
2023-01-01T08:30:40.018Z,5.50
2023-01-01T08:31:40.953Z,5.50
2023-01-01T08:32:39.993Z,5.70
2023-01-01T08:33:40.011Z,5.20
2023-01-01T08:34:39.976Z,5.10
2023-01-01T08:35:39.953Z,5.40
2023-01-01T08:36:39.969Z,5.20
2023-01-01T08:37:39.940Z,5.50
2023-01-01T08:38:39.925Z,5.50
2023-01-01T08:39:39.912Z,5.50
2023-01-01T08:40:39.901Z,5.30
2023-01-01T08:41:39.936Z,5.20
2023-01-01T08:42:39.903Z,5.20
2023-01-01T08:43:39.854Z,4.90
2023-01-01T08:44:39.852Z,5.30
2023-01-01T08:45:39.831Z,5.30
2023-01-01T08:46:39.861Z,5.30
2023-01-01T08:47:39.825Z,5.00
2023-01-01T08:48:39.801Z,5.30
2023-01-01T08:49:39.800Z,5.00
2023-01-01T08:50:39.799Z,4.80
2023-01-01T08:51:39.760Z,5.00
2023-01-01T08:52:39.764Z,4.80
2023-01-01T08:53:42.982Z,5.20
2023-01-01T08:54:40.764Z,4.70
2023-01-01T08:55:39.724Z,5.50
2023-01-01T08:56:39.702Z,5.10
2023-01-01T08:57:39.691Z,5.10
2023-01-01T08:58:39.677Z,5.00
2023-01-01T08:59:39.670Z,4.80
2023-01-01T09:00:39.678Z,5.40
2023-01-01T09:01:39.717Z,5.20
2023-01-01T09:02:39.820Z,5.20
2023-01-01T09:03:39.673Z,4.80
2023-01-01T09:04:39.613Z,4.80
2023-01-01T09:05:39.617Z,4.50
2023-01-01T09:06:39.656Z,5.10
2023-01-01T09:07:39.579Z,5.30
2023-01-01T09:08:39.578Z,4.80
2023-01-01T09:09:39.554Z,5.30
2023-01-01T09:10:39.579Z,5.10
2023-01-01T09:11:39.546Z,5.10
2023-01-01T09:12:39.547Z,4.70
2023-01-01T09:13:39.559Z,4.70
2023-01-01T09:14:39.523Z,5.00
2023-01-01T09:15:39.553Z,4.80
2023-01-01T09:16:44.028Z,4.80
2023-01-01T09:17:40.461Z,4.10
2023-01-01T09:18:39.457Z,4.20
2023-01-01T09:19:39.474Z,4.20
2023-01-01T09:20:39.427Z,4.50
2023-01-01T09:21:39.465Z,4.40
2023-01-01T09:22:39.409Z,4.80
2023-01-01T09:23:39.414Z,4.40
2023-01-01T09:24:39.387Z,4.60
2023-01-01T09:25:39.428Z,4.60
2023-01-01T09:26:39.364Z,4.80
2023-01-01T09:27:39.352Z,4.50
2023-01-01T09:28:39.342Z,4.60
2023-01-01T09:29:39.332Z,4.90
2023-01-01T09:30:39.311Z,4.60
2023-01-01T09:31:39.369Z,4.80
2023-01-01T09:32:39.288Z,4.70
2023-01-01T09:33:39.275Z,4.60
2023-01-01T09:34:39.252Z,4.80
2023-01-01T09:35:39.236Z,5.10
2023-01-01T09:36:39.249Z,4.70
2023-01-01T09:37:39.271Z,5.10
2023-01-01T09:38:39.204Z,5.10
2023-01-01T09:39:39.207Z,5.30
2023-01-01T09:40:39.179Z,5.30
2023-01-01T09:41:39.173Z,4.90
2023-01-01T09:42:39.226Z,4.50
2023-01-01T09:43:39.406Z,4.50
2023-01-01T09:44:39.166Z,4.80
2023-01-01T09:45:39.169Z,5.20
2023-01-01T09:46:39.128Z,4.30
2023-01-01T09:47:39.110Z,4.50
2023-01-01T09:48:39.102Z,4.20
2023-01-01T09:49:39.118Z,4.50
2023-01-01T09:50:39.062Z,4.90
2023-01-01T09:51:47.580Z,4.70
2023-01-01T09:52:41.059Z,4.60
2023-01-01T09:53:39.030Z,4.40
2023-01-01T09:54:39.006Z,4.50
2023-01-01T09:55:39.011Z,4.50
2023-01-01T09:56:38.992Z,4.40
2023-01-01T09:57:39.003Z,4.30
2023-01-01T09:58:39.004Z,4.30
2023-01-01T09:59:38.947Z,4.10
2023-01-01T10:00:39.928Z,4.30
2023-01-01T10:01:39.055Z,4.60
2023-01-01T10:02:38.921Z,3.90
2023-01-01T10:03:38.946Z,4.30
2023-01-01T10:04:38.891Z,4.70
2023-01-01T10:05:38.879Z,4.50
2023-01-01T10:06:38.860Z,4.60
2023-01-01T10:07:38.852Z,4.30
2023-01-01T10:08:38.843Z,4.40
2023-01-01T10:09:38.812Z,4.60
2023-01-01T10:10:38.811Z,4.30
2023-01-01T10:11:38.806Z,4.30
2023-01-01T10:12:38.800Z,4.70
2023-01-01T10:13:38.770Z,4.60
2023-01-01T10:14:38.752Z,4.50
2023-01-01T10:15:39.757Z,4.50
2023-01-01T10:16:38.769Z,4.70
2023-01-01T10:17:38.748Z,4.50
2023-01-01T10:18:38.775Z,4.10
2023-01-01T10:19:38.694Z,4.40
2023-01-01T10:20:38.681Z,4.30
2023-01-01T10:21:42.105Z,5.00
2023-01-01T10:22:40.683Z,4.60
2023-01-01T10:23:38.661Z,4.50
2023-01-01T10:24:38.704Z,4.10
2023-01-01T10:25:38.602Z,4.10
2023-01-01T10:26:38.603Z,4.50
2023-01-01T10:27:38.597Z,4.70
2023-01-01T10:28:38.591Z,4.10
2023-01-01T10:29:38.577Z,4.30
2023-01-01T10:30:38.590Z,4.20
2023-01-01T10:31:38.626Z,3.90
2023-01-01T10:32:38.548Z,4.40
2023-01-01T10:33:38.513Z,4.00
2023-01-01T10:34:38.506Z,4.50
2023-01-01T10:35:38.531Z,4.00
2023-01-01T10:36:38.490Z,4.60
2023-01-01T10:37:38.465Z,4.70
2023-01-01T10:38:38.472Z,4.20
2023-01-01T10:39:38.448Z,4.10
2023-01-01T10:40:38.451Z,4.00
2023-01-01T10:41:38.427Z,4.20
2023-01-01T10:42:38.411Z,4.30
2023-01-01T10:43:38.392Z,4.60
2023-01-01T10:44:38.404Z,4.20
2023-01-01T10:45:38.507Z,4.10
2023-01-01T10:46:38.420Z,4.40
2023-01-01T10:47:38.357Z,4.30
2023-01-01T10:48:38.348Z,4.10
2023-01-01T10:49:38.316Z,4.30
2023-01-01T10:50:38.460Z,4.70
2023-01-01T10:51:38.297Z,4.40
2023-01-01T10:52:38.304Z,4.20
2023-01-01T10:53:38.275Z,4.50
2023-01-01T10:54:38.304Z,4.70
2023-01-01T10:55:38.257Z,4.80
2023-01-01T10:56:38.256Z,4.30
2023-01-01T10:57:38.245Z,4.60
2023-01-01T10:58:38.256Z,4.40
2023-01-01T10:59:38.212Z,4.50
2023-01-01T11:00:38.199Z,4.30
2023-01-01T11:01:38.308Z,4.20
2023-01-01T11:03:10.645Z,4.40
2023-01-01T11:03:38.256Z,4.30
2023-01-01T11:04:38.198Z,4.40
2023-01-01T11:05:38.130Z,4.40
2023-01-01T11:06:38.129Z,4.40
2023-01-01T11:07:38.164Z,4.40
2023-01-01T11:08:39.144Z,4.50
2023-01-01T11:09:38.103Z,4.60
2023-01-01T11:10:38.104Z,4.30
2023-01-01T11:11:38.062Z,4.60
2023-01-01T11:13:04.415Z,4.40
2023-01-01T11:13:40.056Z,4.70
2023-01-01T11:14:38.041Z,4.70
2023-01-01T11:15:38.012Z,4.40
2023-01-01T11:16:38.133Z,4.40
2023-01-01T11:17:38.001Z,4.20
2023-01-01T11:18:38.016Z,4.40
2023-01-01T11:19:38.003Z,4.40
2023-01-01T11:20:37.954Z,4.50
2023-01-01T11:21:38.094Z,4.50
2023-01-01T11:22:37.938Z,4.60
2023-01-01T11:23:37.932Z,4.80
2023-01-01T11:24:37.914Z,4.60
2023-01-01T11:25:37.881Z,4.20
2023-01-01T11:26:37.877Z,4.50
2023-01-01T11:27:37.893Z,4.30
2023-01-01T11:28:37.885Z,4.70
2023-01-01T11:29:37.845Z,4.30
2023-01-01T11:30:37.911Z,4.90
2023-01-01T11:31:37.845Z,4.60
2023-01-01T11:32:37.820Z,4.50
2023-01-01T11:33:37.835Z,4.30
2023-01-01T11:34:37.838Z,4.50
2023-01-01T11:35:37.777Z,4.60
2023-01-01T11:36:37.792Z,4.30
2023-01-01T11:37:37.749Z,4.70
2023-01-01T11:38:37.747Z,4.90
2023-01-01T11:39:37.786Z,4.40
2023-01-01T11:40:37.748Z,4.60
2023-01-01T11:41:37.701Z,4.60
2023-01-01T11:42:37.737Z,4.30
2023-01-01T11:43:37.696Z,4.60
2023-01-01T11:44:37.839Z,4.60
2023-01-01T11:45:38.191Z,4.80
2023-01-01T11:46:37.687Z,4.20
2023-01-01T11:47:37.633Z,4.40
2023-01-01T11:48:37.642Z,4.10
2023-01-01T11:49:37.631Z,4.10
2023-01-01T11:50:37.623Z,5.00
2023-01-01T11:51:37.590Z,6.80
2023-01-01T11:52:37.566Z,10.30
2023-01-01T11:53:37.563Z,7.10
2023-01-01T11:54:37.578Z,3.60
2023-01-01T11:55:37.560Z,3.40
2023-01-01T11:56:37.530Z,3.80
2023-01-01T11:57:37.533Z,3.60
2023-01-01T11:58:37.715Z,3.50
2023-01-01T11:59:37.496Z,3.90
2023-01-01T12:00:37.514Z,3.60
2023-01-01T12:01:37.589Z,3.70
2023-01-01T12:02:37.588Z,3.50
2023-01-01T12:03:37.555Z,3.40
2023-01-01T12:04:37.457Z,3.80
2023-01-01T12:05:37.442Z,4.30
2023-01-01T12:06:37.535Z,6.00
2023-01-01T12:07:37.413Z,8.80
2023-01-01T12:08:37.448Z,7.40
2023-01-01T12:09:37.402Z,4.30
2023-01-01T12:10:37.381Z,3.70
2023-01-01T12:11:37.383Z,3.70
2023-01-01T12:12:37.387Z,3.70
2023-01-01T12:13:37.357Z,3.50
2023-01-01T12:14:37.341Z,3.30
2023-01-01T12:15:37.354Z,3.10
2023-01-01T12:16:37.365Z,3.70
2023-01-01T12:17:37.305Z,3.90
2023-01-01T12:18:37.272Z,3.40
2023-01-01T12:19:37.281Z,3.80
2023-01-01T12:20:37.274Z,3.70
2023-01-01T12:21:37.292Z,3.40
2023-01-01T12:22:37.251Z,4.70
2023-01-01T12:23:37.271Z,7.00
2023-01-01T12:24:37.245Z,6.50
2023-01-01T12:25:37.229Z,4.10
2023-01-01T12:26:37.218Z,3.80
2023-01-01T12:27:37.211Z,3.50
2023-01-01T12:28:37.189Z,3.20
2023-01-01T12:29:37.201Z,3.80
2023-01-01T12:30:37.146Z,5.20
2023-01-01T12:31:37.161Z,3.50
2023-01-01T12:32:37.151Z,3.20
2023-01-01T12:33:37.134Z,3.40
2023-01-01T12:34:37.123Z,3.50
2023-01-01T12:35:37.114Z,5.10
2023-01-01T12:36:37.101Z,11.60
2023-01-01T12:37:37.093Z,11.70
2023-01-01T12:38:37.128Z,7.10
2023-01-01T12:39:37.056Z,4.70
2023-01-01T12:40:37.049Z,4.00
2023-01-01T12:41:37.022Z,3.80
2023-01-01T12:42:37.039Z,3.70
2023-01-01T12:43:37.029Z,3.50
2023-01-01T12:44:37.017Z,3.70
2023-01-01T12:45:36.981Z,3.70
2023-01-01T12:46:37.001Z,3.90
2023-01-01T12:47:37.980Z,3.60
2023-01-01T12:48:36.958Z,3.80
2023-01-01T12:49:36.973Z,3.70
2023-01-01T12:50:36.956Z,3.70
2023-01-01T12:51:36.905Z,3.80
2023-01-01T12:52:37.513Z,3.90
2023-01-01T12:53:36.945Z,4.10
2023-01-01T12:54:36.876Z,4.10
2023-01-01T12:55:36.893Z,3.70
2023-01-01T12:56:36.867Z,3.70
2023-01-01T12:57:36.834Z,3.80
2023-01-01T12:58:36.818Z,3.80
2023-01-01T12:59:36.802Z,3.30
2023-01-01T13:00:36.828Z,3.60
2023-01-01T13:01:36.962Z,3.20
2023-01-01T13:02:36.904Z,3.80
2023-01-01T13:03:36.907Z,3.50
2023-01-01T13:04:36.771Z,3.50
2023-01-01T13:05:36.793Z,3.30
2023-01-01T13:06:36.748Z,3.50
2023-01-01T13:07:36.735Z,3.90
2023-01-01T13:08:36.714Z,3.10
2023-01-01T13:09:36.708Z,3.60
2023-01-01T13:10:36.689Z,3.40
2023-01-01T13:11:41.319Z,3.70
2023-01-01T13:12:38.665Z,3.20